createdAt,value
2018-07-10T00:00:28.015Z,101111.41
2018-07-10T00:01:28.785Z,101111.16
2018-07-10T00:02:29.569Z,101110.70
2018-07-10T00:03:30.337Z,101111.03
2018-07-10T00:04:31.514Z,101110.63
2018-07-10T00:05:31.712Z,101110.95
2018-07-10T00:06:31.394Z,101110.31
2018-07-10T00:19:02.360Z,101107.28
2018-07-10T00:20:03.125Z,101103.19
2018-07-10T00:21:03.907Z,101103.36
2018-07-10T00:22:04.689Z,101103.53
2018-07-10T00:23:05.464Z,101103.62
2018-07-10T00:24:06.234Z,101103.45
2018-07-10T00:25:07.005Z,101103.19
2018-07-10T00:26:07.779Z,101103.55
2018-07-10T00:27:08.580Z,101103.52
2018-07-10T00:28:09.343Z,101103.19
2018-07-10T00:29:10.119Z,101103.01
2018-07-10T00:30:10.886Z,101102.91
2018-07-10T00:31:11.657Z,101102.32
2018-07-10T00:32:12.451Z,101102.24
2018-07-10T00:33:13.233Z,101102.34
2018-07-10T00:34:13.997Z,101102.00
2018-07-10T00:35:14.768Z,101101.61
2018-07-10T00:36:15.538Z,101100.59
2018-07-10T00:37:16.334Z,101099.96
2018-07-10T00:38:17.103Z,101099.39
2018-07-10T00:39:17.879Z,101098.86
2018-07-10T00:40:18.647Z,101098.22
2018-07-10T00:41:19.433Z,101097.55
2018-07-10T00:42:20.215Z,101096.73
2018-07-10T00:43:20.985Z,101095.95
2018-07-10T00:44:21.762Z,101095.16
2018-07-10T00:45:22.535Z,101094.30
2018-07-10T00:46:23.320Z,101093.69
2018-07-10T00:47:24.118Z,101092.47
2018-07-10T00:48:24.890Z,101091.31
2018-07-10T00:49:25.662Z,101090.23
2018-07-10T00:50:26.434Z,101089.17
2018-07-10T00:51:27.216Z,101087.97
2018-07-10T00:52:28.008Z,101086.62
2018-07-10T00:53:28.774Z,101085.59
2018-07-10T00:54:29.561Z,101084.47
2018-07-10T00:55:33.113Z,101082.95
2018-07-10T00:56:30.884Z,101080.78
2018-07-10T00:57:31.692Z,101078.97
2018-07-10T00:58:32.464Z,101077.86
2018-07-10T00:59:33.232Z,101076.36
2018-07-10T01:00:34.007Z,101075.17
2018-07-10T01:01:34.785Z,101073.51
2018-07-10T01:02:35.582Z,101072.13
2018-07-10T01:03:36.357Z,101071.19
2018-07-10T01:04:37.124Z,101069.84
2018-07-10T01:05:37.902Z,101068.86
2018-07-10T01:06:38.673Z,101067.92
2018-07-10T01:07:39.477Z,101066.64
2018-07-10T01:08:40.247Z,101065.44
2018-07-10T01:09:41.016Z,101064.81
2018-07-10T01:10:41.786Z,101063.86
2018-07-10T01:11:42.565Z,101063.00
2018-07-10T01:12:43.360Z,101062.59
2018-07-10T01:13:44.135Z,101061.88
2018-07-10T01:14:44.914Z,101061.27
2018-07-10T01:15:45.689Z,101061.46
2018-07-10T01:16:46.457Z,101060.67
2018-07-10T01:17:47.263Z,101060.16
2018-07-10T01:18:48.079Z,101059.86
2018-07-10T01:19:47.798Z,101059.31
2018-07-10T01:20:49.577Z,101058.45
2018-07-10T01:21:50.345Z,101057.80
2018-07-10T01:22:51.142Z,101056.73
2018-07-10T01:23:51.919Z,101056.31
2018-07-10T01:24:52.689Z,101055.33
2018-07-10T01:25:53.461Z,101054.49
2018-07-10T01:26:54.231Z,101053.29
2018-07-10T01:27:55.036Z,101053.17
2018-07-10T01:28:55.809Z,101052.47
2018-07-10T01:29:56.584Z,101052.14
2018-07-10T01:30:57.356Z,101051.43
2018-07-10T01:31:58.137Z,101051.23
2018-07-10T01:32:58.934Z,101051.22
2018-07-10T01:33:59.704Z,101051.24
2018-07-10T01:35:00.479Z,101050.87
2018-07-10T01:36:01.256Z,101050.53
2018-07-10T01:37:02.025Z,101050.91
2018-07-10T01:38:02.828Z,101050.23
2018-07-10T01:39:03.595Z,101050.23
2018-07-10T01:40:04.384Z,101050.14
2018-07-10T01:41:05.139Z,101050.28
2018-07-10T01:42:05.913Z,101050.34
2018-07-10T01:43:06.708Z,101050.61
2018-07-10T01:44:07.485Z,101050.17
2018-07-10T01:45:08.261Z,101050.67
2018-07-10T01:46:09.035Z,101050.50
2018-07-10T01:47:09.813Z,101050.58
2018-07-10T01:48:10.606Z,101050.02
2018-07-10T01:49:11.384Z,101049.63
2018-07-10T01:50:12.155Z,101048.74
2018-07-10T01:51:12.927Z,101047.37
2018-07-10T01:52:13.698Z,101046.22
2018-07-10T01:53:14.505Z,101044.92
2018-07-10T01:54:15.266Z,101044.34
2018-07-10T01:55:16.041Z,101043.70
2018-07-10T01:56:16.816Z,101043.36
2018-07-10T01:57:17.584Z,101043.44
2018-07-10T01:58:18.387Z,101043.57
2018-07-10T01:59:19.158Z,101042.71
2018-07-10T02:00:19.936Z,101042.66
2018-07-10T02:01:20.711Z,101042.21
2018-07-10T02:02:21.487Z,101042.15
2018-07-10T02:03:22.287Z,101042.25
2018-07-10T02:04:23.056Z,101042.45
2018-07-10T02:05:23.829Z,101042.55
2018-07-10T02:06:25.001Z,101043.09
2018-07-10T02:07:25.206Z,101043.23
2018-07-10T02:22:48.910Z,101042.72
2018-07-10T02:23:49.679Z,101037.52
2018-07-10T02:24:50.473Z,101037.17
2018-07-10T02:25:51.247Z,101037.27
2018-07-10T02:26:52.016Z,101037.74
2018-07-10T02:27:52.829Z,101037.94
2018-07-10T02:28:53.593Z,101038.52
2018-07-10T02:29:54.387Z,101038.91
2018-07-10T02:30:55.171Z,101039.02
2018-07-10T02:31:55.940Z,101039.45
2018-07-10T02:32:56.718Z,101039.92
2018-07-10T02:33:57.495Z,101039.77
2018-07-10T02:34:58.291Z,101040.09
2018-07-10T02:35:59.063Z,101041.18
2018-07-10T02:36:59.833Z,101041.55
2018-07-10T02:38:00.606Z,101042.50
2018-07-10T02:39:01.385Z,101043.41
2018-07-10T02:40:02.176Z,101044.08
2018-07-10T02:41:02.944Z,101044.88
2018-07-10T02:42:03.719Z,101046.02
2018-07-10T02:43:04.488Z,101046.63
2018-07-10T02:44:05.261Z,101047.74
2018-07-10T02:45:06.062Z,101048.67
2018-07-10T02:46:06.863Z,101049.95
2018-07-10T02:47:07.619Z,101051.13
2018-07-10T02:48:08.396Z,101052.54
2018-07-10T02:49:09.163Z,101053.57
2018-07-10T02:50:09.966Z,101055.19
2018-07-10T02:51:10.735Z,101056.64
2018-07-10T02:52:11.508Z,101057.84
2018-07-10T02:53:12.280Z,101059.59
2018-07-10T02:54:13.061Z,101060.20
2018-07-10T02:55:13.847Z,101061.61
2018-07-10T02:56:14.620Z,101062.56
2018-07-10T02:57:15.390Z,101063.72
2018-07-10T02:58:16.165Z,101065.02
2018-07-10T02:59:16.935Z,101066.45
2018-07-10T03:00:16.731Z,101067.87
2018-07-10T03:01:18.504Z,101069.41
2018-07-10T03:02:19.281Z,101070.98
2018-07-10T03:03:20.050Z,101072.34
2018-07-10T03:04:20.832Z,101073.20
2018-07-10T03:05:21.619Z,101073.88
2018-07-10T03:06:22.389Z,101075.58
2018-07-10T03:07:23.163Z,101076.93
2018-07-10T03:08:23.936Z,101077.40
2018-07-10T03:09:24.722Z,101078.50
2018-07-10T03:10:25.518Z,101078.64
2018-07-10T03:11:26.289Z,101079.38
2018-07-10T03:12:27.060Z,101080.53
2018-07-10T03:13:27.834Z,101081.06
2018-07-10T03:14:28.610Z,101081.23
2018-07-10T03:15:29.407Z,101082.02
2018-07-10T03:16:30.176Z,101082.33
2018-07-10T03:17:30.956Z,101083.31
2018-07-10T03:18:31.721Z,101084.05
2018-07-10T03:19:32.493Z,101085.33
2018-07-10T03:20:33.289Z,101085.86
2018-07-10T03:21:34.065Z,101086.77
2018-07-10T03:22:34.841Z,101087.30
2018-07-10T03:23:35.617Z,101088.05
2018-07-10T03:24:36.391Z,101088.09
2018-07-10T03:25:37.186Z,101088.36
2018-07-10T03:26:37.962Z,101087.67
2018-07-10T03:27:38.731Z,101087.35
2018-07-10T03:28:39.509Z,101087.06
2018-07-10T03:29:40.277Z,101087.23
2018-07-10T03:30:41.071Z,101087.50
2018-07-10T03:31:41.843Z,101088.11
2018-07-10T03:32:42.614Z,101088.16
2018-07-10T03:33:43.395Z,101088.42
2018-07-10T03:34:44.169Z,101089.04
2018-07-10T03:35:44.964Z,101089.34
2018-07-10T03:36:45.739Z,101089.48
2018-07-10T03:37:46.514Z,101089.73
2018-07-10T03:38:47.291Z,101089.62
2018-07-10T03:39:48.070Z,101089.40
2018-07-10T03:40:48.867Z,101089.40
2018-07-10T03:41:49.637Z,101089.80
2018-07-10T03:42:50.409Z,101089.84
2018-07-10T03:43:51.184Z,101089.84
2018-07-10T03:44:51.960Z,101090.26
2018-07-10T03:45:52.757Z,101091.14
2018-07-10T03:46:53.525Z,101091.34
2018-07-10T03:47:54.296Z,101091.42
2018-07-10T03:48:55.069Z,101091.09
2018-07-10T03:49:55.842Z,101091.14
2018-07-10T03:50:56.645Z,101091.38
2018-07-10T03:51:57.425Z,101091.16
2018-07-10T03:52:58.195Z,101091.52
2018-07-10T03:53:58.968Z,101091.69
2018-07-10T03:54:59.741Z,101091.98
2018-07-10T03:56:00.538Z,101091.93
2018-07-10T03:57:01.309Z,101092.44
2018-07-10T03:58:02.082Z,101092.77
2018-07-10T03:59:02.860Z,101092.30
2018-07-10T04:00:03.627Z,101093.14
2018-07-10T04:01:04.433Z,101093.03
2018-07-10T04:02:05.202Z,101093.01
2018-07-10T04:03:05.970Z,101093.00
2018-07-10T04:04:06.742Z,101092.95
2018-07-10T04:05:07.513Z,101093.45
2018-07-10T04:06:08.323Z,101093.53
2018-07-10T04:07:09.091Z,101094.27
2018-07-10T04:08:09.865Z,101095.13
2018-07-10T04:09:10.695Z,101095.31
2018-07-10T04:10:10.411Z,101095.78
2018-07-10T04:11:12.597Z,101096.05
2018-07-10T04:12:12.801Z,101096.38
2018-07-10T04:13:12.015Z,101096.64
2018-07-10T04:14:12.271Z,101097.17
2018-07-10T04:14:21.054Z,101099.89
2018-07-10T04:15:21.815Z,101102.09
2018-07-10T04:16:22.611Z,101101.45
2018-07-10T04:17:23.383Z,101101.08
2018-07-10T04:18:24.158Z,101100.75
2018-07-10T04:19:24.930Z,101099.80
2018-07-10T04:20:25.699Z,101099.08
2018-07-10T04:21:26.497Z,101098.63
2018-07-10T04:22:27.273Z,101098.52
2018-07-10T04:23:28.040Z,101098.27
2018-07-10T04:24:28.819Z,101098.68
2018-07-10T04:25:29.593Z,101097.92
2018-07-10T04:26:30.388Z,101097.65
2018-07-10T04:27:31.164Z,101097.01
2018-07-10T04:28:31.935Z,101096.66
2018-07-10T04:29:32.708Z,101096.03
2018-07-10T04:30:33.479Z,101095.44
2018-07-10T04:31:34.274Z,101095.70
2018-07-10T04:32:35.052Z,101095.23
2018-07-10T04:33:35.822Z,101095.90
2018-07-10T04:34:36.597Z,101096.09
2018-07-10T04:35:37.368Z,101096.14
2018-07-10T04:36:38.164Z,101096.41
2018-07-10T04:37:38.941Z,101096.80
2018-07-10T04:38:39.710Z,101097.75
2018-07-10T04:39:40.481Z,101098.61
2018-07-10T04:40:41.257Z,101098.80
2018-07-10T04:41:42.051Z,101099.27
2018-07-10T04:42:42.824Z,101099.97
2018-07-10T04:43:43.595Z,101100.73
2018-07-10T04:44:44.368Z,101100.97
2018-07-10T04:45:45.154Z,101101.55
2018-07-10T04:46:45.953Z,101102.31
2018-07-10T04:47:46.721Z,101103.02
2018-07-10T04:48:47.493Z,101103.85
2018-07-10T04:49:48.268Z,101104.27
2018-07-10T04:50:49.040Z,101104.80
2018-07-10T04:51:49.839Z,101105.31
2018-07-10T04:52:50.611Z,101106.33
2018-07-10T04:53:51.386Z,101106.96
2018-07-10T04:54:52.157Z,101107.28
2018-07-10T04:55:52.931Z,101107.66
2018-07-10T04:56:53.728Z,101107.93
2018-07-10T04:57:54.504Z,101109.09
2018-07-10T04:58:55.275Z,101109.18
2018-07-10T04:59:56.048Z,101109.42
2018-07-10T05:00:56.823Z,101109.67
2018-07-10T05:01:57.619Z,101109.67
2018-07-10T05:02:58.394Z,101110.12
2018-07-10T05:03:59.161Z,101110.04
2018-07-10T05:04:59.940Z,101110.63
2018-07-10T05:06:00.705Z,101111.06
2018-07-10T05:07:01.509Z,101111.72
2018-07-10T05:08:02.276Z,101112.23
2018-07-10T05:09:03.048Z,101112.57
2018-07-10T05:10:03.819Z,101113.43
2018-07-10T05:11:04.593Z,101114.55
2018-07-10T05:12:05.488Z,101114.44
2018-07-10T05:13:05.178Z,101115.14
2018-07-10T05:14:06.953Z,101115.20
2018-07-10T05:15:07.724Z,101115.37
2018-07-10T05:16:08.506Z,101115.17
2018-07-10T05:17:09.296Z,101115.41
2018-07-10T05:18:10.070Z,101115.65
2018-07-10T05:19:10.843Z,101115.55
2018-07-10T05:20:11.617Z,101115.59
2018-07-10T05:21:12.402Z,101115.81
2018-07-10T05:22:13.189Z,101115.54
2018-07-10T05:23:13.964Z,101115.27
2018-07-10T05:24:14.738Z,101115.33
2018-07-10T05:25:15.505Z,101115.22
2018-07-10T05:26:16.281Z,101115.54
2018-07-10T05:27:17.070Z,101115.91
2018-07-10T05:28:17.844Z,101116.47
2018-07-10T05:29:18.617Z,101116.06
2018-07-10T05:30:19.392Z,101116.20
2018-07-10T05:31:20.176Z,101116.26
2018-07-10T05:32:20.970Z,101117.21
2018-07-10T05:33:21.744Z,101117.35
2018-07-10T05:34:22.517Z,101117.67
2018-07-10T05:35:23.292Z,101118.42
2018-07-10T05:36:24.062Z,101118.93
2018-07-10T05:37:24.867Z,101118.80
2018-07-10T05:38:25.634Z,101119.25
2018-07-10T05:39:26.408Z,101119.49
2018-07-10T05:40:27.179Z,101119.56
2018-07-10T05:41:27.949Z,101119.28
2018-07-10T05:42:28.746Z,101119.15
2018-07-10T05:43:29.520Z,101119.30
2018-07-10T05:44:30.296Z,101119.06
2018-07-10T05:45:31.067Z,101119.03
2018-07-10T05:46:31.924Z,101118.73
2018-07-10T05:47:31.637Z,101118.31
2018-07-10T05:48:33.413Z,101117.63
2018-07-10T05:49:34.183Z,101117.02
2018-07-10T05:50:34.954Z,101115.91
2018-07-10T05:51:35.725Z,101115.65
2018-07-10T05:52:36.533Z,101115.13
2018-07-10T05:53:37.297Z,101114.20
2018-07-10T05:54:38.078Z,101113.32
2018-07-10T05:55:38.843Z,101112.88
2018-07-10T05:56:39.615Z,101112.77
2018-07-10T05:57:40.411Z,101112.55
2018-07-10T05:58:41.206Z,101113.05
2018-07-10T05:59:41.956Z,101113.20
2018-07-10T06:00:42.728Z,101112.84
2018-07-10T06:01:43.500Z,101113.48
2018-07-10T06:02:44.663Z,101113.48
2018-07-10T06:03:44.858Z,101113.67
2018-07-10T06:04:44.055Z,101112.97
2018-07-10T06:05:44.264Z,101113.19
2018-07-10T06:08:57.738Z,101106.27
2018-07-10T06:09:58.484Z,101106.52
2018-07-10T06:10:59.289Z,101105.40
2018-07-10T06:12:00.033Z,101105.08
2018-07-10T06:13:00.828Z,101104.55
2018-07-10T06:14:01.615Z,101104.06
2018-07-10T06:15:01.369Z,101103.43
2018-07-10T06:16:03.139Z,101102.83
2018-07-10T06:17:03.917Z,101102.37
2018-07-10T06:18:04.712Z,101102.06
2018-07-10T06:19:05.484Z,101101.50
2018-07-10T06:20:06.255Z,101100.95
2018-07-10T06:21:07.029Z,101100.47
2018-07-10T06:22:07.797Z,101099.90
2018-07-10T06:23:08.618Z,101099.73
2018-07-10T06:24:09.369Z,101098.86
2018-07-10T06:25:10.138Z,101098.13
2018-07-10T06:26:10.911Z,101097.75
2018-07-10T06:27:11.683Z,101097.36
2018-07-10T06:28:12.539Z,101097.02
2018-07-10T06:29:12.248Z,101096.31
2018-07-10T06:30:14.060Z,101095.39
2018-07-10T06:31:13.790Z,101094.77
2018-07-10T06:32:15.566Z,101094.51
2018-07-10T06:33:16.359Z,101093.99
2018-07-10T06:34:17.135Z,101092.88
2018-07-10T06:35:17.907Z,101092.88
2018-07-10T06:36:18.683Z,101092.62
2018-07-10T06:37:19.457Z,101092.64
2018-07-10T06:38:20.255Z,101092.50
2018-07-10T06:39:21.029Z,101092.70
2018-07-10T06:40:21.806Z,101092.72
2018-07-10T06:41:22.574Z,101092.36
2018-07-10T06:42:23.347Z,101092.31
2018-07-10T06:43:24.149Z,101092.02
2018-07-10T06:44:24.924Z,101091.88
2018-07-10T06:45:25.692Z,101092.25
2018-07-10T06:46:26.469Z,101092.16
2018-07-10T06:47:27.241Z,101092.25
2018-07-10T06:48:28.039Z,101091.83
2018-07-10T06:49:28.812Z,101091.73
2018-07-10T06:50:29.605Z,101092.03
2018-07-10T06:51:30.359Z,101092.03
2018-07-10T06:52:31.267Z,101091.47
2018-07-10T06:53:31.002Z,101090.78
2018-07-10T06:54:31.699Z,101090.36
2018-07-10T06:55:33.472Z,101089.52
2018-07-10T06:56:34.249Z,101088.91
2018-07-10T06:57:35.023Z,101088.73
2018-07-10T06:58:35.816Z,101088.37
2018-07-10T06:59:36.591Z,101088.17
2018-07-10T07:00:37.413Z,101088.65
2018-07-10T07:01:37.138Z,101088.52
2018-07-10T07:02:38.910Z,101087.69
2018-07-10T07:03:39.704Z,101087.87
2018-07-10T07:04:40.479Z,101087.27
2018-07-10T07:05:41.250Z,101087.22
2018-07-10T07:06:42.027Z,101086.84
2018-07-10T07:07:42.832Z,101086.90
2018-07-10T07:08:42.596Z,101086.76
2018-07-10T07:09:44.367Z,101085.88
2018-07-10T07:10:45.140Z,101085.46
2018-07-10T07:11:45.914Z,101085.22
2018-07-10T07:12:46.685Z,101084.46
2018-07-10T07:13:47.483Z,101084.89
2018-07-10T07:14:48.254Z,101084.81
2018-07-10T07:15:49.063Z,101085.02
2018-07-10T07:16:48.835Z,101084.36
2018-07-10T08:31:23.488Z,101057.27
2018-07-10T08:32:23.222Z,101059.80
2018-07-10T08:33:24.016Z,101059.70
2018-07-10T08:34:24.718Z,101059.17
2018-07-10T08:35:26.495Z,101059.14
2018-07-10T08:36:27.381Z,101058.82
2018-07-10T08:37:28.143Z,101058.29
2018-07-10T08:38:28.915Z,101057.70
2018-07-10T08:39:29.704Z,101056.82
2018-07-10T08:40:30.474Z,101056.69
2018-07-10T08:41:31.276Z,101056.25
2018-07-10T08:42:32.046Z,101055.95
2018-07-10T08:43:32.828Z,101055.52
2018-07-10T08:44:33.604Z,101055.28
2018-07-10T08:45:34.373Z,101055.02
2018-07-10T08:46:35.166Z,101055.23
2018-07-10T08:47:36.111Z,101055.36
2018-07-10T08:48:35.804Z,101055.36
2018-07-10T08:49:37.666Z,101055.62
2018-07-10T08:50:38.451Z,101055.20
2018-07-10T08:51:38.239Z,101055.15
2018-07-10T08:52:40.018Z,101055.05
2018-07-10T08:53:40.781Z,101055.13
2018-07-10T08:54:41.557Z,101054.77
2018-07-10T08:55:42.329Z,101054.31
2018-07-10T08:56:43.153Z,101054.16
2018-07-10T08:57:43.924Z,101054.66
2018-07-10T08:58:44.695Z,101053.83
2018-07-10T08:59:45.526Z,101053.72
2018-07-10T09:00:45.244Z,101052.80
2018-07-10T09:01:47.038Z,101052.62
2018-07-10T09:02:47.808Z,101051.34
2018-07-10T09:03:48.583Z,101050.92
2018-07-10T09:04:49.354Z,101050.61
2018-07-10T09:05:50.129Z,101049.54
2018-07-10T09:06:50.936Z,101048.50
2018-07-10T09:07:51.746Z,101047.80
2018-07-10T09:08:51.478Z,101047.23
2018-07-10T09:09:53.249Z,101047.25
2018-07-10T09:10:54.024Z,101047.14
2018-07-10T09:11:54.815Z,101046.61
2018-07-10T09:12:55.589Z,101046.05
2018-07-10T09:13:56.390Z,101045.48
2018-07-10T09:14:57.133Z,101044.73
2018-07-10T09:15:57.905Z,101044.28
2018-07-10T09:16:58.709Z,101043.41
2018-07-10T09:17:59.476Z,101042.46
2018-07-10T09:19:00.258Z,101042.09
2018-07-10T09:20:01.027Z,101041.72
2018-07-10T09:21:01.812Z,101041.80
2018-07-10T09:22:02.602Z,101041.25
2018-07-10T09:23:03.379Z,101040.97
2018-07-10T09:24:04.148Z,101040.01
2018-07-10T09:25:04.925Z,101039.44
2018-07-10T09:26:05.691Z,101039.05
2018-07-10T09:27:06.490Z,101038.16
2018-07-10T09:28:07.264Z,101037.67
2018-07-10T09:29:08.033Z,101036.84
2018-07-10T09:30:08.805Z,101035.83
2018-07-10T09:31:09.580Z,101034.86
2018-07-10T09:32:10.373Z,101033.84
2018-07-10T09:33:11.148Z,101032.94
2018-07-10T09:34:11.922Z,101032.09
2018-07-10T09:35:12.696Z,101031.50
2018-07-10T09:36:13.476Z,101030.84
2018-07-10T09:37:14.274Z,101029.83
2018-07-10T09:38:15.131Z,101028.83
2018-07-10T09:39:14.817Z,101027.73
2018-07-10T09:40:16.589Z,101026.55
2018-07-10T09:41:17.360Z,101025.77
2018-07-10T09:42:18.164Z,101025.06
2018-07-10T09:43:18.935Z,101024.80
2018-07-10T09:44:19.761Z,101024.52
2018-07-10T09:45:19.479Z,101024.34
2018-07-10T09:46:21.253Z,101024.38
2018-07-10T09:47:22.059Z,101024.25
2018-07-10T09:48:22.825Z,101024.70
2018-07-10T09:49:23.602Z,101025.14
2018-07-10T09:50:24.383Z,101025.89
2018-07-10T09:51:25.148Z,101025.79
2018-07-10T09:52:25.946Z,101025.97
2018-07-10T09:53:26.718Z,101025.88
2018-07-10T09:54:27.491Z,101026.00
2018-07-10T09:55:28.271Z,101026.05
2018-07-10T09:56:29.039Z,101026.09
2018-07-10T09:57:29.836Z,101025.79
2018-07-10T09:58:30.612Z,101025.42
2018-07-10T09:59:31.388Z,101025.54
2018-07-10T10:00:32.159Z,101025.69
2018-07-10T10:01:32.931Z,101025.70
2018-07-10T10:02:33.733Z,101025.86
2018-07-10T10:03:34.503Z,101025.97
2018-07-10T10:04:35.276Z,101026.41
2018-07-10T10:05:36.055Z,101027.02
2018-07-10T10:06:36.825Z,101027.91
2018-07-10T10:07:37.627Z,101028.20
2018-07-10T10:08:38.401Z,101028.96
2018-07-10T10:09:39.167Z,101029.75
2018-07-10T10:10:39.943Z,101029.55
2018-07-10T10:11:40.715Z,101029.87
2018-07-10T10:12:41.510Z,101030.45
2018-07-10T10:13:42.282Z,101030.21
2018-07-10T10:14:43.060Z,101030.34
2018-07-10T10:15:43.835Z,101029.75
2018-07-10T10:16:44.606Z,101029.54
2018-07-10T10:17:45.399Z,101029.16
2018-07-10T10:18:46.177Z,101029.09
2018-07-10T10:19:46.949Z,101028.97
2018-07-10T10:20:47.721Z,101028.59
2018-07-10T10:21:48.500Z,101028.08
2018-07-10T10:22:49.296Z,101027.88
2018-07-10T10:23:50.067Z,101027.45
2018-07-10T10:24:50.852Z,101027.00
2018-07-10T10:25:52.004Z,101026.55
2018-07-10T10:26:52.187Z,101026.47
2018-07-10T10:27:51.414Z,101025.70
2018-07-10T10:28:54.963Z,101025.45
2018-07-10T10:37:37.142Z,101009.08
2018-07-10T10:38:37.938Z,100999.16
2018-07-10T10:39:38.709Z,100999.27
2018-07-10T10:40:39.480Z,100999.14
2018-07-10T10:41:40.255Z,100999.53
2018-07-10T10:42:41.023Z,100999.78
2018-07-10T10:43:41.818Z,100999.44
2018-07-10T10:44:42.590Z,100999.45
2018-07-10T10:45:43.365Z,100998.86
2018-07-10T10:46:44.137Z,100998.72
2018-07-10T10:47:44.910Z,100998.80
2018-07-10T10:48:45.704Z,100998.59
2018-07-10T10:49:46.479Z,100998.26
2018-07-10T10:50:47.250Z,100997.45
2018-07-10T10:51:48.019Z,100996.48
2018-07-10T10:52:48.797Z,100995.56
2018-07-10T10:53:49.590Z,100995.05
2018-07-10T10:54:50.373Z,100993.72
2018-07-10T10:55:51.136Z,100993.08
2018-07-10T10:56:51.915Z,100991.88
2018-07-10T10:57:52.682Z,100990.52
2018-07-10T10:58:53.477Z,100989.19
2018-07-10T10:59:54.248Z,100988.42
2018-07-10T11:00:55.026Z,100987.42
2018-07-10T11:01:55.795Z,100986.08
2018-07-10T11:02:56.570Z,100984.36
2018-07-10T11:03:57.368Z,100983.41
2018-07-10T11:04:57.141Z,100982.70
2018-07-10T11:05:58.927Z,100982.31
2018-07-10T11:06:59.696Z,100980.86
2018-07-10T11:08:00.460Z,100979.81
2018-07-10T11:09:01.254Z,100978.98
2018-07-10T11:10:02.024Z,100977.03
2018-07-10T11:11:02.801Z,100975.75
2018-07-10T11:12:02.571Z,100974.12
2018-07-10T11:13:04.418Z,100972.46
2018-07-10T11:14:04.142Z,100970.82
2018-07-10T11:15:05.915Z,100969.63
2018-07-10T11:16:06.693Z,100968.14
2018-07-10T11:17:07.461Z,100966.95
2018-07-10T11:18:08.233Z,100965.84
2018-07-10T11:19:09.031Z,100964.48
2018-07-10T11:20:09.803Z,100964.16
2018-07-10T11:21:10.582Z,100962.77
2018-07-10T11:22:11.346Z,100961.41
2018-07-10T11:23:12.122Z,100961.05
2018-07-10T11:24:12.920Z,100960.45
2018-07-10T11:25:13.690Z,100960.13
2018-07-10T11:26:14.470Z,100959.50
2018-07-10T11:27:15.235Z,100958.51
2018-07-10T11:28:16.009Z,100957.30
2018-07-10T11:29:16.802Z,100956.51
2018-07-10T11:30:17.575Z,100955.62
2018-07-10T11:31:18.540Z,100954.70
2018-07-10T11:32:18.236Z,100953.38
2018-07-10T11:33:20.245Z,100951.80
2018-07-10T11:34:19.960Z,100950.66
2018-07-10T11:35:21.733Z,100948.77
2018-07-10T11:36:22.515Z,100947.94
2018-07-10T11:37:23.284Z,100947.38
2018-07-10T11:38:24.061Z,100946.74
2018-07-10T11:39:24.995Z,100946.02
2018-07-10T11:40:24.633Z,100944.73
2018-07-10T11:41:26.405Z,100944.12
2018-07-10T11:42:27.179Z,100942.68
2018-07-10T11:43:27.954Z,100941.97
2018-07-10T11:44:28.747Z,100941.35
2018-07-10T11:45:29.525Z,100941.69
2018-07-10T11:46:30.297Z,100941.25
2018-07-10T11:47:31.076Z,100941.27
2018-07-10T11:48:31.845Z,100941.27
2018-07-10T11:49:32.653Z,100940.80
2018-07-10T11:50:33.420Z,100941.20
2018-07-10T11:51:34.206Z,100941.91
2018-07-10T11:52:35.044Z,100942.75
2018-07-10T11:53:34.737Z,100943.41
2018-07-10T11:54:36.537Z,100943.83
2018-07-10T11:55:37.311Z,100944.54
2018-07-10T11:56:38.079Z,100944.58
2018-07-10T11:57:38.853Z,100945.11
2018-07-10T11:58:39.628Z,100945.09
2018-07-10T11:59:40.424Z,100945.30
2018-07-10T12:00:41.198Z,100945.60
2018-07-10T12:01:41.972Z,100945.59
2018-07-10T12:02:42.744Z,100945.82
2018-07-10T12:03:43.527Z,100946.05
2018-07-10T12:04:44.319Z,100945.72
2018-07-10T12:05:45.098Z,100945.86
2018-07-10T12:06:45.868Z,100946.98
2018-07-10T12:07:46.640Z,100946.67
2018-07-10T12:08:47.411Z,100947.45
2018-07-10T12:09:48.213Z,100947.60
2018-07-10T12:10:48.979Z,100948.39
2018-07-10T12:11:49.755Z,100949.05
2018-07-10T12:12:50.524Z,100949.12
2018-07-10T12:13:51.295Z,100949.34
2018-07-10T12:14:52.094Z,100949.20
2018-07-10T12:15:52.861Z,100948.56
2018-07-10T12:16:53.630Z,100948.14
2018-07-10T12:17:54.402Z,100947.97
2018-07-10T12:18:55.172Z,100947.38
2018-07-10T12:19:55.967Z,100947.17
2018-07-10T12:20:56.743Z,100946.31
2018-07-10T12:21:57.513Z,100945.59
2018-07-10T12:22:58.290Z,100944.47
2018-07-10T12:23:59.058Z,100943.23
2018-07-10T12:24:59.858Z,100942.64
2018-07-10T12:26:00.630Z,100941.84
2018-07-10T12:27:01.401Z,100941.17
2018-07-10T12:28:02.253Z,100940.39
2018-07-10T12:29:01.950Z,100939.74
2018-07-10T12:30:03.746Z,100939.42
2018-07-10T12:31:04.899Z,100937.92
2018-07-10T12:32:05.081Z,100936.36
2018-07-10T12:33:04.281Z,100935.42
2018-07-10T12:34:04.477Z,100933.97
2018-07-10T12:37:08.423Z,100916.03
2018-07-10T12:38:10.194Z,100906.95
2018-07-10T12:39:10.966Z,100907.06
2018-07-10T12:40:11.735Z,100907.32
2018-07-10T12:41:12.533Z,100908.08
2018-07-10T12:42:13.308Z,100908.22
2018-07-10T12:43:14.080Z,100908.89
2018-07-10T12:44:14.864Z,100909.06
2018-07-10T12:45:15.629Z,100908.86
2018-07-10T12:46:16.425Z,100908.52
2018-07-10T12:47:17.205Z,100908.42
2018-07-10T12:48:17.973Z,100908.55
2018-07-10T12:49:18.779Z,100907.66
2018-07-10T12:50:18.519Z,100907.60
2018-07-10T12:51:20.314Z,100907.46
2018-07-10T12:52:21.087Z,100907.91
2018-07-10T12:53:21.859Z,100907.83
2018-07-10T12:54:22.631Z,100907.87
2018-07-10T12:55:23.407Z,100908.00
2018-07-10T12:56:24.202Z,100908.16
2018-07-10T12:57:24.975Z,100908.66
2018-07-10T12:58:25.747Z,100908.57
2018-07-10T12:59:26.518Z,100908.23
2018-07-10T13:00:27.374Z,100908.73
2018-07-10T13:01:27.129Z,100908.58
2018-07-10T13:02:28.900Z,100908.89
2018-07-10T13:03:29.677Z,100908.97
2018-07-10T13:04:30.511Z,100909.03
2018-07-10T13:05:30.223Z,100909.45
2018-07-10T13:06:32.020Z,100909.79
2018-07-10T13:07:32.798Z,100909.44
2018-07-10T13:08:33.582Z,100909.51
2018-07-10T13:09:34.337Z,100909.67
2018-07-10T13:10:35.111Z,100909.75
2018-07-10T13:11:35.907Z,100909.47
2018-07-10T13:12:36.680Z,100909.19
2018-07-10T13:13:37.455Z,100909.30
2018-07-10T13:14:38.232Z,100909.55
2018-07-10T13:15:39.002Z,100909.27
2018-07-10T13:16:39.805Z,100909.33
2018-07-10T13:17:40.577Z,100909.75
2018-07-10T13:18:41.359Z,100909.84
2018-07-10T13:19:42.128Z,100909.66
2018-07-10T13:20:42.905Z,100910.08
2018-07-10T13:21:43.704Z,100910.06
2018-07-10T13:22:44.474Z,100910.13
2018-07-10T13:23:45.248Z,100910.09